createdAt,value
2022-09-22T00:01:26.079Z,1.98
2022-09-22T00:03:55.228Z,2.10
2022-09-22T00:06:26.535Z,2.65
2022-09-22T00:08:56.075Z,3.10
2022-09-22T00:11:31.142Z,5.40
2022-09-22T00:14:01.443Z,3.95
2022-09-22T00:16:33.673Z,4.32
2022-09-22T00:19:00.927Z,6.05
2022-09-22T00:21:28.269Z,4.75
2022-09-22T00:23:55.445Z,2.72
2022-09-22T00:26:23.490Z,3.13
2022-09-22T00:28:51.542Z,6.15
2022-09-22T00:31:22.943Z,5.05
2022-09-22T00:33:50.570Z,3.58
2022-09-22T00:36:18.283Z,3.58
2022-09-22T00:38:45.428Z,3.28
2022-09-22T00:41:21.693Z,2.60
2022-09-22T00:43:50.765Z,3.67
2022-09-22T00:46:28.998Z,3.20
2022-09-22T00:49:00.676Z,4.10
2022-09-22T00:51:29.948Z,1.92
2022-09-22T00:53:57.366Z,4.80
2022-09-22T00:56:28.545Z,2.50
2022-09-22T00:58:59.188Z,7.38
2022-09-22T01:01:26.454Z,2.47
2022-09-22T01:03:54.455Z,4.60
2022-09-22T01:06:23.928Z,2.75
2022-09-22T01:08:50.891Z,2.97
2022-09-22T01:11:20.901Z,3.47
2022-09-22T01:13:54.345Z,3.10
2022-09-22T01:16:27.451Z,2.40
2022-09-22T01:19:31.914Z,3.67
2022-09-22T01:22:23.408Z,2.33
2022-09-22T01:24:53.294Z,1.63
2022-09-22T01:27:28.617Z,2.95
2022-09-22T01:30:16.024Z,3.35
2022-09-22T01:32:58.333Z,2.80
2022-09-22T01:35:31.359Z,4.22
2022-09-22T01:38:18.622Z,2.75
2022-09-22T01:40:51.480Z,2.60
2022-09-22T01:43:32.003Z,1.70
2022-09-22T01:46:01.005Z,3.42
2022-09-22T01:48:30.092Z,2.30
2022-09-22T01:51:04.665Z,2.67
2022-09-22T01:53:37.463Z,3.55
2022-09-22T01:56:06.083Z,2.20
2022-09-22T01:58:35.078Z,1.98
2022-09-22T02:01:15.998Z,2.10
2022-09-22T02:03:48.086Z,2.63
2022-09-22T02:06:20.985Z,2.95
2022-09-22T02:08:52.426Z,3.13
2022-09-22T02:11:19.447Z,2.60
2022-09-22T02:13:46.931Z,1.63
2022-09-22T02:16:15.302Z,1.50
2022-09-22T02:18:45.340Z,2.53
2022-09-22T02:21:13.063Z,2.83
2022-09-22T02:23:40.209Z,4.28
2022-09-22T02:26:07.355Z,2.85
2022-09-22T02:28:35.422Z,3.00
2022-09-22T02:31:19.560Z,2.13
2022-09-22T02:33:50.720Z,1.83
2022-09-22T02:36:41.466Z,2.55
2022-09-22T02:39:20.497Z,2.70
2022-09-22T02:41:59.704Z,2.78
2022-09-22T02:44:39.830Z,2.13
2022-09-22T02:47:10.578Z,1.73
2022-09-22T02:49:37.730Z,2.65
2022-09-22T02:52:11.392Z,1.42
2022-09-22T02:54:39.540Z,1.55
2022-09-22T02:57:07.418Z,2.60
2022-09-22T02:59:34.589Z,2.70
2022-09-22T03:02:01.681Z,1.73
2022-09-22T03:04:28.837Z,3.42
2022-09-22T03:06:56.086Z,1.40
2022-09-22T03:09:23.228Z,2.25
2022-09-22T03:11:51.836Z,3.33
2022-09-22T03:14:18.973Z,4.75
2022-09-22T03:16:46.106Z,5.97
2022-09-22T03:19:13.867Z,11.77
2022-09-22T03:21:40.836Z,4.43
2022-09-22T03:24:08.398Z,2.88
2022-09-22T03:26:35.589Z,6.28
2022-09-22T03:29:02.716Z,4.68
2022-09-22T03:31:29.872Z,7.22
2022-09-22T03:33:56.972Z,3.03
2022-09-22T03:36:24.332Z,1.98
2022-09-22T03:38:52.314Z,7.43
2022-09-22T03:41:19.967Z,2.33
2022-09-22T03:43:47.123Z,2.45
2022-09-22T03:46:14.469Z,4.80
2022-09-22T03:48:44.957Z,2.75
2022-09-22T03:51:12.725Z,6.28
2022-09-22T03:53:39.694Z,3.35
2022-09-22T03:56:14.155Z,2.20
2022-09-22T03:58:41.369Z,5.28
2022-09-22T04:01:10.331Z,5.07
2022-09-22T04:03:37.584Z,8.02
2022-09-22T04:06:04.825Z,6.05
2022-09-22T04:08:31.907Z,2.80
2022-09-22T04:11:00.136Z,3.17
2022-09-22T04:13:27.227Z,5.88
2022-09-22T04:15:54.395Z,3.53
2022-09-22T04:18:22.533Z,3.40
2022-09-22T04:20:49.640Z,3.15
2022-09-22T04:23:17.443Z,2.35
2022-09-22T04:25:50.818Z,3.70
2022-09-22T04:28:18.038Z,3.92
2022-09-22T04:30:47.196Z,2.78
2022-09-22T04:36:48.463Z,7.47
2022-09-22T04:40:24.870Z,3.22
2022-09-22T04:42:52.500Z,4.28
2022-09-22T04:45:19.576Z,5.50
2022-09-22T04:47:47.875Z,3.70
2022-09-22T04:50:18.011Z,3.28
2022-09-22T04:52:46.677Z,2.72
2022-09-22T04:55:18.948Z,4.55
2022-09-22T04:57:50.752Z,4.57
2022-09-22T05:00:25.216Z,6.07
2022-09-22T05:03:08.984Z,5.80
2022-09-22T05:05:36.725Z,5.78
2022-09-22T05:08:06.932Z,5.55
2022-09-22T05:10:39.151Z,7.85
2022-09-22T05:13:08.456Z,6.47
2022-09-22T05:15:38.232Z,6.53
2022-09-22T05:18:21.555Z,7.00
2022-09-22T05:20:48.745Z,7.13
2022-09-22T05:23:15.679Z,8.15
2022-09-22T05:25:44.597Z,5.50
2022-09-22T05:28:12.176Z,5.00
2022-09-22T05:30:39.309Z,6.22
2022-09-22T05:33:06.571Z,6.03
2022-09-22T05:35:37.046Z,9.95
2022-09-22T05:38:04.322Z,8.50
2022-09-22T05:40:31.634Z,10.60
2022-09-22T05:42:58.871Z,5.90
2022-09-22T05:45:26.486Z,7.70
2022-09-22T05:47:53.883Z,7.55
2022-09-22T05:50:21.447Z,7.45
2022-09-22T05:52:48.739Z,7.95
2022-09-22T05:55:21.827Z,5.55
2022-09-22T06:01:03.727Z,8.60
2022-09-22T06:03:49.381Z,4.68
2022-09-22T06:06:32.984Z,5.28
2022-09-22T06:17:15.356Z,4.30
2022-09-22T06:19:53.993Z,4.97
2022-09-22T06:22:24.572Z,4.40
2022-09-22T06:24:52.925Z,5.82
2022-09-22T06:27:23.844Z,6.53
2022-09-22T06:41:23.558Z,6.18
2022-09-22T06:57:07.003Z,6.63
2022-09-22T07:02:49.925Z,5.40
2022-09-22T07:05:22.305Z,5.07
2022-09-22T07:07:49.438Z,7.47
2022-09-22T07:13:27.127Z,5.72
2022-09-22T08:12:11.335Z,4.50
2022-09-22T08:14:39.689Z,4.30
2022-09-22T08:17:12.828Z,4.55
2022-09-22T08:20:35.812Z,4.95
2022-09-22T08:23:10.877Z,6.80
2022-09-22T08:57:51.737Z,6.25
2022-09-22T09:00:28.350Z,6.00
2022-09-22T09:53:44.327Z,5.38
2022-09-22T09:59:43.648Z,5.10
2022-09-22T10:15:26.353Z,6.50
2022-09-22T10:17:59.186Z,3.63
2022-09-22T11:00:42.908Z,5.47
2022-09-22T11:07:18.353Z,4.05
2022-09-22T11:30:16.333Z,3.30
2022-09-22T11:33:04.949Z,5.03
2022-09-22T11:36:19.099Z,4.22
2022-09-22T11:43:16.407Z,6.40
2022-09-22T11:57:14.639Z,4.30
2022-09-22T12:00:20.560Z,5.30
2022-09-22T12:51:35.299Z,6.07
2022-09-22T12:54:40.659Z,5.20
2022-09-22T12:57:16.277Z,5.45
2022-09-22T13:00:27.844Z,5.43
2022-09-22T13:03:05.981Z,4.05
2022-09-22T13:05:45.554Z,5.57
2022-09-22T13:08:23.177Z,4.60
2022-09-22T13:10:55.930Z,4.05
2022-09-22T13:14:00.018Z,6.03
2022-09-22T13:16:48.014Z,4.43
2022-09-22T13:19:38.303Z,6.55
2022-09-22T13:22:38.938Z,4.28
2022-09-22T13:25:23.622Z,3.60
2022-09-22T13:28:12.837Z,4.07
2022-09-22T13:31:24.438Z,3.75
2022-09-22T13:33:53.841Z,3.77
2022-09-22T13:40:14.771Z,3.15
2022-09-22T13:46:02.492Z,3.85
2022-09-22T13:48:38.958Z,2.67
2022-09-22T13:51:16.265Z,3.45
2022-09-22T13:53:52.994Z,2.50
2022-09-22T13:56:21.959Z,5.95
2022-09-22T13:58:50.263Z,2.97
2022-09-22T14:01:19.787Z,2.97
2022-09-22T14:03:47.630Z,2.80
2022-09-22T14:06:16.499Z,3.53
2022-09-22T14:08:43.961Z,3.50
2022-09-22T14:11:18.554Z,3.20
2022-09-22T14:13:58.150Z,3.15
2022-09-22T14:16:28.577Z,4.22
2022-09-22T14:19:04.779Z,3.67
2022-09-22T14:21:41.199Z,3.42
2022-09-22T14:24:08.236Z,5.45
2022-09-22T14:26:39.253Z,3.40
2022-09-22T14:29:19.451Z,3.22
2022-09-22T14:31:49.526Z,3.33
2022-09-22T14:34:48.607Z,3.08
2022-09-22T14:37:34.629Z,6.03
2022-09-22T14:40:04.138Z,6.05
2022-09-22T14:42:32.194Z,3.55
2022-09-22T14:45:08.667Z,4.47
2022-09-22T14:47:41.867Z,3.92
2022-09-22T14:50:21.430Z,4.22
2022-09-22T14:52:57.600Z,4.57
2022-09-22T14:55:39.277Z,4.45
2022-09-22T14:58:50.929Z,4.60
2022-09-22T15:01:43.998Z,2.67
2022-09-22T15:04:23.203Z,4.70
2022-09-22T15:07:04.568Z,2.67
2022-09-22T15:09:41.478Z,3.03
2022-09-22T15:12:32.128Z,5.78
2022-09-22T15:14:59.376Z,3.63
2022-09-22T15:17:59.476Z,2.85
2022-09-22T15:20:35.038Z,3.75
2022-09-22T15:23:02.839Z,3.75
2022-09-22T15:25:31.151Z,2.10
2022-09-22T15:27:58.178Z,6.25
2022-09-22T15:30:33.170Z,3.88
2022-09-22T15:33:00.957Z,2.50
2022-09-22T15:35:28.203Z,5.97
2022-09-22T15:37:55.915Z,5.45
2022-09-22T15:40:23.628Z,2.92
2022-09-22T15:43:11.644Z,2.95
2022-09-22T15:45:38.765Z,2.88
2022-09-22T15:48:05.821Z,4.13
2022-09-22T15:50:32.841Z,2.85
2022-09-22T15:53:00.052Z,3.25
2022-09-22T15:55:27.347Z,2.33
2022-09-22T15:58:07.958Z,2.35
2022-09-22T16:00:49.696Z,2.22
2022-09-22T16:03:24.980Z,2.30
2022-09-22T16:06:10.028Z,3.45
2022-09-22T16:08:55.727Z,3.35
2022-09-22T16:11:39.184Z,3.00
2022-09-22T16:14:17.500Z,3.42
2022-09-22T16:16:46.981Z,4.20
2022-09-22T16:19:15.382Z,3.55
2022-09-22T16:21:53.176Z,3.03
2022-09-22T16:24:35.087Z,5.50
2022-09-22T16:48:42.716Z,2.90
2022-09-22T16:54:11.020Z,2.20
2022-09-22T17:12:31.249Z,3.45
2022-09-22T17:14:59.995Z,2.60
2022-09-22T17:17:35.759Z,3.70
2022-09-22T17:25:21.325Z,13.32
2022-09-22T17:27:51.141Z,12.32
2022-09-22T17:30:21.918Z,11.75
2022-09-22T17:32:52.067Z,9.07
2022-09-22T17:35:19.345Z,6.35
2022-09-22T17:37:54.939Z,8.25
2022-09-22T17:40:28.210Z,9.55
2022-09-22T17:42:59.768Z,7.22
2022-09-22T17:45:30.369Z,6.95
2022-09-22T17:48:20.651Z,12.55
2022-09-22T17:54:37.636Z,9.25
2022-09-22T17:57:09.162Z,7.95
2022-09-22T17:59:53.348Z,6.55
2022-09-22T18:02:22.942Z,5.57
2022-09-22T18:04:51.170Z,5.45
2022-09-22T18:07:24.076Z,5.63
2022-09-22T18:09:57.672Z,6.47
2022-09-22T18:12:27.661Z,7.65
2022-09-22T18:17:51.078Z,7.78
2022-09-22T18:23:13.314Z,6.45
2022-09-22T18:28:43.859Z,10.80
2022-09-22T18:31:17.081Z,8.23
2022-09-22T18:33:46.761Z,6.25
2022-09-22T18:36:14.084Z,6.72
2022-09-22T18:38:45.416Z,7.57
2022-09-22T18:41:16.821Z,6.07
2022-09-22T18:43:49.816Z,7.38
2022-09-22T18:46:22.273Z,6.93
2022-09-22T18:48:57.696Z,6.65
2022-09-22T18:51:26.364Z,8.60
2022-09-22T18:53:56.591Z,7.05
2022-09-22T18:56:29.159Z,7.20
2022-09-22T18:58:56.690Z,8.73
2022-09-22T19:01:24.147Z,5.38
2022-09-22T19:04:44.302Z,7.13
2022-09-22T19:07:38.964Z,4.03
2022-09-22T19:10:12.664Z,4.20
2022-09-22T19:12:41.011Z,3.97
2022-09-22T19:15:21.091Z,4.75
2022-09-22T19:17:48.648Z,3.80
2022-09-22T19:20:22.850Z,4.07
2022-09-22T19:22:52.868Z,4.93
2022-09-22T19:25:22.199Z,4.40
2022-09-22T19:27:50.557Z,5.90
2022-09-22T19:30:22.403Z,6.57
2022-09-22T19:32:52.228Z,5.13
2022-09-22T19:35:19.828Z,11.25
2022-09-22T19:37:47.463Z,10.43
2022-09-22T19:40:19.037Z,10.70
2022-09-22T19:42:47.015Z,8.43
2022-09-22T19:45:14.743Z,9.68
2022-09-22T19:47:41.901Z,7.32
2022-09-22T19:50:09.544Z,8.25
2022-09-22T19:52:39.910Z,8.30
2022-09-22T19:55:10.351Z,11.07
2022-09-22T20:00:40.670Z,13.90
2022-09-22T20:03:12.558Z,16.20
2022-09-22T20:05:45.117Z,14.55
2022-09-22T20:08:16.391Z,15.45
2022-09-22T20:10:47.760Z,11.70
2022-09-22T20:13:34.981Z,12.82
2022-09-22T20:16:05.857Z,14.40
2022-09-22T20:18:41.154Z,10.30
2022-09-22T20:21:11.951Z,8.68
2022-09-22T20:23:42.912Z,8.43
2022-09-22T20:26:15.387Z,11.88
2022-09-22T20:28:47.962Z,7.00
2022-09-22T20:31:22.041Z,5.50
2022-09-22T20:33:55.578Z,4.72
2022-09-22T20:36:25.096Z,5.93
2022-09-22T20:38:54.845Z,5.40
2022-09-22T20:41:25.362Z,5.00
2022-09-22T20:43:54.563Z,7.47
2022-09-22T20:46:24.170Z,6.95
2022-09-22T20:48:54.405Z,4.38
2022-09-22T20:51:26.943Z,3.67
2022-09-22T20:53:54.772Z,3.80
2022-09-22T20:59:44.573Z,4.53
2022-09-22T21:02:17.498Z,3.67
2022-09-22T21:04:56.065Z,4.30
2022-09-22T21:07:26.828Z,3.35
2022-09-22T21:10:32.057Z,5.00
2022-09-22T21:13:19.891Z,7.20
2022-09-22T21:16:42.790Z,5.15
2022-09-22T21:22:24.185Z,4.85
2022-09-22T21:24:58.259Z,5.38
2022-09-22T21:30:19.011Z,3.53
2022-09-22T21:32:52.933Z,4.72
2022-09-22T21:35:21.633Z,5.68
2022-09-22T21:37:56.663Z,5.03
2022-09-22T21:40:27.433Z,5.80
2022-09-22T21:42:56.301Z,4.40
2022-09-22T21:45:25.051Z,5.25
2022-09-22T21:47:52.592Z,3.88
2022-09-22T21:50:19.968Z,5.32
2022-09-22T21:52:50.815Z,5.90
2022-09-22T21:55:19.659Z,8.18
2022-09-22T21:57:48.082Z,5.22
2022-09-22T22:00:16.411Z,6.82
2022-09-22T22:03:01.873Z,7.00
2022-09-22T22:05:30.904Z,8.50
2022-09-22T22:08:01.624Z,5.97
2022-09-22T22:10:34.859Z,7.40
2022-09-22T22:15:48.819Z,7.28
2022-09-22T22:18:16.393Z,9.73
2022-09-22T22:20:48.035Z,6.63
2022-09-22T22:23:22.922Z,7.55
2022-09-22T22:26:01.352Z,6.60
2022-09-22T22:28:30.207Z,7.70
2022-09-22T22:31:05.346Z,9.55
2022-09-22T22:36:20.072Z,8.93
2022-09-22T22:38:52.711Z,11.05
2022-09-22T22:41:19.955Z,8.95
2022-09-22T22:43:48.038Z,10.40
2022-09-22T22:46:19.507Z,9.30
2022-09-22T22:48:46.747Z,8.23
2022-09-22T22:51:15.513Z,9.13
2022-09-22T22:53:45.850Z,10.45
2022-09-22T22:56:17.388Z,8.73
2022-09-22T22:58:45.905Z,8.65
2022-09-22T23:01:15.282Z,7.85
2022-09-22T23:04:06.456Z,7.75
2022-09-22T23:06:39.129Z,8.60
2022-09-22T23:09:07.912Z,6.10
2022-09-22T23:11:37.704Z,10.95
2022-09-22T23:14:06.657Z,8.63
2022-09-22T23:16:36.480Z,7.80
2022-09-22T23:19:09.560Z,7.60
2022-09-22T23:21:41.082Z,6.38
2022-09-22T23:24:12.344Z,5.88
2022-09-22T23:29:31.799Z,5.60
2022-09-22T23:32:01.928Z,5.25
2022-09-22T23:34:33.092Z,5.40
2022-09-22T23:37:01.194Z,5.90
2022-09-22T23:39:30.965Z,5.72
2022-09-22T23:42:00.056Z,6.25
2022-09-22T23:44:38.482Z,6.93
2022-09-22T23:47:13.217Z,6.93
2022-09-22T23:49:45.335Z,8.95
2022-09-22T23:52:16.434Z,8.98
2022-09-22T23:54:49.048Z,5.93
2022-09-22T23:57:21.749Z,5.88
2022-09-22T23:59:50.921Z,6.03
